« Back
NWS Peachtree City, Ga » Text Product » MCN Terminal Aerodrome Forecast


Printer-friendly Version
Current Version              Previous Versions:   1  2  3  4  5  6  7  8  9  

Terminal Aerodrome Forecast

792
FTUS42 KFFC 301100 RRA
TAFMCN
TAF
KMCN 301143Z 3012/3112 VRB03KT P6SM BKN080
     FM301500 16005KT P6SM SCT030 BKN060 PROB30 3021/3102 6SM TSRA
      BKN045CB
     FM310200 00000KT P6SM BKN045=

USA.gov is the U.S. government's official web portal to all federal, state and local government web resources and services.